• Join FlightAware (Why Join?)
  • Login
  • US Flag 
05:59AM EDT


 

Airport Tracker/Info


-or-


 

Live Flight TrackerFlight Track Log ✈ RPA3228 ✈ 14-May-2013 ✈ KDSM - KDCA

Flight Track Log - Related Links

Times and Time Zones

All times are in EDT time to prevent confusion due to time zone crossing. See the RPA3228 flight status page for this flight to view local times or setup timezone preferences in your user account.

Time Position Orientation Groundspeed Altitude Reporting Facility
EDT Latitude Longitude Course Direction KTS MPH feet Rate Location/Type
07:18AM 41.5269 -93.6736 229° Southwest 153 176 1,800  Level Minneapolis Center
07:19AM 41.5153 -93.6914 229° Southwest 144 166 2,400 1,020 Climbing Minneapolis Center
07:20AM 41.4633 -93.7081 194° South 226 260 3,200 1,560 Climbing Minneapolis Center
07:21AM 41.4522 -93.6114 99° East 278 320 5,300 2,340 Climbing Minneapolis Center
07:22AM 41.4569 -93.4975 87° East 288 331 8,000 2,400 Climbing Minneapolis Center
07:23AM 41.4614 -93.3847 87° East 302 348 10,300 2,160 Climbing Minneapolis Center
07:24AM 41.4664 -93.2653 87° East 322 371 12,400 2,160 Climbing Minneapolis Center
07:25AM 41.4711 -93.1428 87° East 330 380 14,700 2,040 Climbing Minneapolis Center
07:26AM 41.4750 -93.0169 88° East 339 390 16,600 1,920 Climbing Minneapolis Center
07:27AM 41.4800 -92.8811 87° East 356 410 18,700 1,860 Climbing Minneapolis Center
07:28AM 41.4844 -92.7475 87° East 360 414 20,500 1,620 Climbing Minneapolis Center
07:29AM 41.4886 -92.6122 88° East 364 419 22,000 1,440 Climbing Minneapolis Center
07:30AM 41.4942 -92.4753 87° East 368 423 23,500 1,500 Climbing Minneapolis Center
07:31AM 41.4994 -92.3308 87° East 383 441 24,900 1,320 Climbing Chicago Center
07:32AM 41.5033 -92.1850 88° East 394 453 26,100 1,200 Climbing Chicago Center
07:33AM 41.5081 -92.0358 88° East 404 465 27,400 1,260 Climbing Chicago Center
07:34AM 41.5117 -91.8833 88° East 414 476 28,700 1,380 Climbing Chicago Center
07:35AM 41.5156 -91.7281 88° East 421 484 30,300 1,380 Climbing Chicago Center
07:36AM 41.5194 -91.5761 88° East 418 481 31,600 1,320 Climbing Chicago Center
07:37AM 41.5242 -91.3928 88° East 417 480 33,100 1,140 Climbing Chicago Center
07:38AM 41.5275 -91.2386 88° East 419 482 34,000 900 Climbing Chicago Center
07:39AM 41.5292 -91.0861 89° East 418 481 35,000 480 Climbing Chicago Center
07:40AM 41.5319 -90.9283 89° East 428 493 35,000  Level Chicago Center
07:41AM 41.5350 -90.7658 89° East 440 506 35,000  Level Chicago Center
07:42AM 41.5369 -90.6019 89° East 442 509 35,000  Level Chicago Center
07:43AM 41.5394 -90.4383 89° East 441 507 35,000  Level Chicago Center
07:44AM 41.5417 -90.2414 89° East 441 507 35,000  Level Chicago Center
07:45AM 41.5442 -90.0772 89° East 440 506 35,000  Level Chicago Center
07:46AM 41.5458 -89.9119 89° East 444 511 35,000  Level Chicago Center
07:47AM 41.5464 -89.7458 90° East 446 513 35,000  Level Chicago Center
07:48AM 41.5478 -89.5831 89° East 439 505 35,000  Level Chicago Center
07:49AM 41.5478 -89.3983 90° East 446 513 35,000  Level Chicago Center
07:50AM 41.5478 -89.2333 90° East 446 513 35,000  Level Chicago Center
07:51AM 41.5489 -89.0697 89° East 444 511 35,000  Level Chicago Center
07:52AM 41.5481 -88.9053 90° East 445 512 35,000  Level Chicago Center
07:53AM 41.5483 -88.7408 90° East 446 513 35,000  Level Chicago Center
07:54AM 41.5483 -88.5761 90° East 447 514 35,000  Level Chicago Center
07:55AM 41.5475 -88.4114 90° East 445 512 35,000  Level Chicago Center
07:56AM 41.5250 -88.2164 99° East 448 516 35,000  Level Chicago Center
07:57AM 41.4925 -88.0625 106° East 462 532 35,000  Level Chicago Center
07:58AM 41.4561 -87.8983 106° East 464 534 35,000  Level Chicago Center
08:00AM 41.4161 -87.7147 106° East 458 527 35,000  Level Chicago Center
08:01AM 41.3811 -87.5544 106° East 455 524 35,000  Level Chicago Center
08:02AM 41.3444 -87.3933 107° East 456 525 35,000  Level Chicago Center
08:03AM 41.3083 -87.2331 107° East 455 524 35,000  Level Chicago Center
08:04AM 41.2714 -87.0719 107° East 457 526 35,000  Level Chicago Center
08:05AM 41.2350 -86.9139 107° East 453 521 35,000  Level Chicago Center
08:06AM 41.1919 -86.7247 107° East 451 519 35,000  Level Chicago Center
08:07AM 41.1536 -86.5622 107° East 459 528 35,000  Level Chicago Center
08:08AM 41.1169 -86.4031 107° East 457 526 35,000  Level Chicago Center
08:09AM 41.0800 -86.2444 107° East 454 522 35,000  Level Chicago Center
08:10AM 41.0428 -86.0853 107° East 455 524 35,000  Level Chicago Center
08:11AM 41.0050 -85.9275 108° East 453 521 35,000  Level Chicago Center
08:12AM 40.9594 -85.7369 108° East 455 524 35,000  Level Chicago Center
08:13AM 40.9211 -85.5789 108° East 454 522 35,000  Level Chicago Center
08:14AM 40.8825 -85.4181 108° East 458 527 35,000  Level Chicago Center
08:15AM 40.8433 -85.2597 108° East 458 527 35,000  Level Chicago Center
08:16AM 40.8053 -85.1019 108° East 457 526 35,000  Level Chicago Center
08:17AM 40.7575 -84.9178 109° East 452 520 35,000  Level Chicago Center
08:18AM 40.7189 -84.7542 107° East 460 529 35,000  Level Chicago Center
08:19AM 40.6800 -84.5933 108° East 464 534 35,000  Level Chicago Center
08:20AM 40.6397 -84.4342 108° East 463 533 35,000  Level Chicago Center
08:21AM 40.6072 -84.3094 109° East 463 533 35,000  Level Indianapolis Center
08:22AM 40.5658 -84.1481 109° East 462 532 35,000  Level Indianapolis Center
08:23AM 40.5247 -83.9875 109° East 459 528 35,000  Level Indianapolis Center
08:24AM 40.4828 -83.8258 109° East 462 532 35,000  Level Indianapolis Center
08:25AM 40.4403 -83.6639 109° East 463 533 35,000  Level Indianapolis Center
08:26AM 40.3978 -83.5036 109° East 460 529 35,000  Level Indianapolis Center
08:27AM 40.3547 -83.3417 109° East 463 533 35,000  Level Indianapolis Center
08:28AM 40.3106 -83.1808 110° East 462 532 35,000  Level Indianapolis Center
08:29AM 40.2686 -83.0200 109° East 460 529 35,000  Level Indianapolis Center
08:30AM 40.2244 -82.8594 110° East 461 531 35,000  Level Indianapolis Center
08:31AM 40.1806 -82.6978 110° East 465 535 35,000  Level Indianapolis Center
08:32AM 40.1364 -82.5383 110° East 462 532 35,000  Level Indianapolis Center
08:33AM 40.0803 -82.3533 112° Southeast 465 535 35,000  Level Indianapolis Center
08:34AM 40.0339 -82.1958 111° Southeast 461 531 35,000  Level Indianapolis Center
08:35AM 39.9858 -82.0372 112° Southeast 464 534 35,000  Level Indianapolis Center
08:36AM 39.9375 -81.8786 112° Southeast 466 536 35,000  Level Indianapolis Center
08:37AM 39.8900 -81.7189 111° Southeast 468 539 35,000  Level Indianapolis Center
08:38AM 39.8278 -81.5264 113° Southeast 461 531 35,000  Level Cleveland Center
08:39AM 39.7789 -81.3692 112° Southeast 461 531 35,000  Level Cleveland Center
08:40AM 39.7422 -81.2256 108° East 461 531 35,000  Level Cleveland Center
08:41AM 39.6931 -81.0742 113° Southeast 461 531 35,000  Level Cleveland Center
08:42AM 39.6456 -80.9147 111° Southeast 461 531 35,000  Level Cleveland Center
08:43AM 39.5958 -80.7608 113° Southeast 461 531 35,000  Level Cleveland Center
08:45AM 39.5139 -80.4931 112° Southeast 495 570 35,000  Level Washington Center
08:46AM 39.4639 -80.3364 112° Southeast 483 556 35,000  Level Washington Center
08:47AM 39.4136 -80.1825 113° Southeast 471 542 35,000 -660 Level Washington Center
08:48AM 39.3631 -80.0292 113° Southeast 466 536 33,800 -1,920 Descending Washington Center
08:49AM 39.3125 -79.8731 113° Southeast 466 536 31,300 -1,440 Descending Washington Center
08:50AM 39.2886 -79.7214 101° East 451 519 31,000 -180 Descending Washington Center
08:51AM 39.2769 -79.5706 96° East 435 501 31,000 -180 Level Washington Center
08:52AM 39.2653 -79.4172 96° East 430 495 30,700 -1,260 Descending Washington Center
08:53AM 39.2514 -79.2664 97° East 430 495 28,500 -2,160 Descending Washington Center
08:54AM 39.2392 -79.1183 96° East 435 501 26,500 -2,280 Descending Washington Center
08:55AM 39.2247 -78.9622 97° East 435 501 24,100 -2,760 Descending Washington Center
08:56AM 39.2081 -78.8061 98° East 440 506 20,900 -2,040 Descending Washington Center
08:57AM 39.1933 -78.6553 97° East 440 506 20,000 -900 Descending Washington Center
08:58AM 39.1783 -78.5100 98° East 422 486 19,200 -1,500 Descending Washington Center
08:59AM 39.1628 -78.3650 98° East 417 480 17,100 -1,680 Descending Washington Center
09:00AM 39.1306 -78.2300 107° East 400 460 15,900 -1,140 Descending Washington Center
09:01AM 39.0894 -78.1000 112° Southeast 395 455 14,900 -960 Descending Washington Center
09:02AM 39.0267 -78.0072 131° Southeast 368 423 14,000 -1,140 Descending Washington Center
09:03AM 39.0081 -77.8917 102° East 344 396 12,700 -1,740 Descending Washington Center
09:04AM 38.9958 -77.7683 97° East 320 368 10,600 -1,800 Descending Washington Center
09:05AM 38.9850 -77.6719 98° East 310 357 9,100 -960 Descending Washington Center
09:06AM 38.9667 -77.5833 105° East 312 359 9,000 -300 Descending Potomac TRACON
09:07AM 38.9333 -77.4833 113° Southeast 315 362 8,600 -1,020 Descending Potomac TRACON
09:08AM 38.8833 -77.4000 128° Southeast 305 351 7,100 -1,380 Descending Potomac TRACON
09:09AM 38.8500 -77.3000 113° Southeast 259 298 6,000 -600 Descending Potomac TRACON
09:10AM 38.8167 -77.2500 131° Southeast 224 258 6,000  Level Potomac TRACON
09:11AM 38.7833 -77.1667 117° Southeast 222 255 6,000  Level Potomac TRACON
09:11AM 38.7667 -77.1167 113° Southeast 226 260 6,000  Level Potomac TRACON
09:12AM 38.7000 -77.1167 180° South 219 252 6,000  Level Potomac TRACON
09:13AM 38.6500 -77.1000 165° South 210 242 6,000  Level Potomac TRACON
09:14AM 38.5833 -77.1000 180° South 200 230 6,000  Level Potomac TRACON
09:15AM 38.5333 -77.1000 180° South 201 231 6,000 -300 Level Potomac TRACON
09:16AM 38.4833 -77.1000 180° South 202 232 5,500 -900 Descending Potomac TRACON
09:17AM 38.4833 -77.0333 90° East 195 224 4,200 -780 Descending Potomac TRACON
09:18AM 38.5333 -77.0333 360° North 170 196 4,000 -300 Descending Potomac TRACON
09:19AM 38.5833 -77.0333 360° North 174 200 3,700 -300 Descending Potomac TRACON